createdAt,value
2023-03-06T00:01:11.564Z,78.00
2023-03-06T00:04:06.104Z,79.30
2023-03-06T00:07:00.358Z,79.50
2023-03-06T00:09:54.763Z,78.60
2023-03-06T00:12:49.154Z,77.90
2023-03-06T00:15:43.482Z,78.40
2023-03-06T00:18:37.781Z,78.30
2023-03-06T00:21:32.052Z,78.60
2023-03-06T00:24:26.373Z,79.50
2023-03-06T00:27:20.603Z,86.00
2023-03-06T00:30:18.932Z,91.60
2023-03-06T00:33:13.537Z,93.90
2023-03-06T00:36:09.126Z,94.90
2023-03-06T00:39:03.942Z,96.50
2023-03-06T00:41:58.717Z,97.20
2023-03-06T00:44:53.524Z,97.40
2023-03-06T00:47:48.267Z,97.70
2023-03-06T00:50:42.996Z,97.30
2023-03-06T00:53:37.801Z,97.20
2023-03-06T00:56:32.578Z,96.50
2023-03-06T00:59:29.042Z,95.10
2023-03-06T01:02:24.317Z,93.10
2023-03-06T01:05:19.268Z,92.20
2023-03-06T01:08:13.492Z,91.40
2023-03-06T01:11:07.990Z,90.80
2023-03-06T01:14:02.448Z,90.10
2023-03-06T01:16:56.910Z,88.80
2023-03-06T01:19:51.303Z,87.20
2023-03-06T01:22:45.819Z,87.80
2023-03-06T01:25:40.061Z,88.00
2023-03-06T01:28:36.350Z,90.70
2023-03-06T01:31:31.064Z,93.10
2023-03-06T01:34:25.350Z,94.60
2023-03-06T01:37:19.636Z,96.10
2023-03-06T01:40:14.826Z,96.90
2023-03-06T01:43:32.023Z,97.90
2023-03-06T01:46:29.975Z,99.00
2023-03-06T01:49:26.392Z,99.90
2023-03-06T01:52:24.918Z,99.90
2023-03-06T01:55:24.250Z,99.90
2023-03-06T01:58:20.605Z,99.90
2023-03-06T02:01:17.292Z,99.90
2023-03-06T02:04:13.146Z,99.90
2023-03-06T02:07:09.178Z,99.90
2023-03-06T02:10:03.607Z,99.90
2023-03-06T02:12:58.056Z,99.90
2023-03-06T02:15:52.333Z,99.90
2023-03-06T02:18:48.675Z,99.90
2023-03-06T02:21:43.016Z,99.90
2023-03-06T02:24:46.412Z,99.90
2023-03-06T02:27:40.777Z,99.90
2023-03-06T02:30:35.194Z,99.90
2023-03-06T02:33:31.246Z,99.90
2023-03-06T02:36:25.591Z,99.80
2023-03-06T02:39:25.129Z,99.30
2023-03-06T02:42:25.829Z,95.70
2023-03-06T02:45:27.621Z,95.50
2023-03-06T02:48:22.807Z,93.90
2023-03-06T02:51:17.163Z,92.30
2023-03-06T02:54:12.198Z,91.40
2023-03-06T02:57:06.768Z,91.20
2023-03-06T03:00:01.063Z,90.40
2023-03-06T03:02:55.778Z,89.30
2023-03-06T03:05:50.093Z,90.20
2023-03-06T03:08:44.472Z,87.60
2023-03-06T03:11:38.921Z,89.60
2023-03-06T03:14:33.190Z,90.20
2023-03-06T03:17:27.569Z,91.20
2023-03-06T03:20:24.373Z,90.40
2023-03-06T03:23:18.672Z,90.60
2023-03-06T03:26:19.936Z,84.10
2023-03-06T03:29:16.502Z,82.80
2023-03-06T03:32:11.203Z,81.30
2023-03-06T03:35:06.842Z,81.50
2023-03-06T03:38:01.323Z,79.70
2023-03-06T03:40:55.735Z,79.60
2023-03-06T03:43:50.310Z,78.90
2023-03-06T03:46:44.820Z,74.90
2023-03-06T03:49:39.136Z,74.50
2023-03-06T03:52:33.495Z,71.70
2023-03-06T03:55:27.904Z,73.10
2023-03-06T03:58:22.121Z,72.10
2023-03-06T04:01:16.314Z,69.60
2023-03-06T04:04:10.635Z,71.50
2023-03-06T04:07:05.629Z,70.10
2023-03-06T04:09:59.926Z,69.20
2023-03-06T04:12:54.110Z,70.00
2023-03-06T04:15:51.849Z,67.10
2023-03-06T04:18:46.083Z,67.60
2023-03-06T04:21:40.360Z,67.40
2023-03-06T04:24:34.693Z,67.00
2023-03-06T04:27:28.998Z,65.80
2023-03-06T04:30:23.286Z,62.50
2023-03-06T04:33:17.648Z,61.90
2023-03-06T04:36:32.816Z,61.50
2023-03-06T04:39:27.110Z,60.90
2023-03-06T04:42:21.464Z,59.20
2023-03-06T04:45:16.588Z,60.80
2023-03-06T04:48:11.844Z,61.30
2023-03-06T04:51:06.351Z,59.40
2023-03-06T04:54:00.650Z,59.50
2023-03-06T04:56:54.941Z,60.10
2023-03-06T04:59:50.836Z,61.80
2023-03-06T05:02:46.192Z,62.10
2023-03-06T05:05:40.443Z,59.60
2023-03-06T05:08:34.791Z,59.50
2023-03-06T05:11:29.115Z,59.10
2023-03-06T05:14:23.411Z,59.10
2023-03-06T05:17:17.608Z,59.70
2023-03-06T05:20:15.112Z,59.80
2023-03-06T05:23:09.355Z,61.50
2023-03-06T05:26:06.763Z,60.70
2023-03-06T05:29:00.978Z,60.40
2023-03-06T05:31:55.264Z,60.50
2023-03-06T05:34:50.606Z,60.60
2023-03-06T05:37:44.967Z,60.70
2023-03-06T05:40:43.100Z,59.70
2023-03-06T05:43:37.351Z,60.20
2023-03-06T05:46:31.630Z,60.70
2023-03-06T05:49:25.958Z,59.10
2023-03-06T05:52:20.266Z,56.60
2023-03-06T05:55:15.061Z,57.40
2023-03-06T05:58:09.338Z,57.40
2023-03-06T06:01:17.420Z,56.60
2023-03-06T06:04:12.743Z,56.20
2023-03-06T06:07:07.566Z,56.00
2023-03-06T06:10:03.645Z,56.50
2023-03-06T06:12:58.246Z,57.20
2023-03-06T06:15:52.512Z,57.50
2023-03-06T06:18:47.457Z,57.70
2023-03-06T06:21:41.672Z,58.40
2023-03-06T06:24:36.074Z,58.90
2023-03-06T06:27:30.248Z,59.40
2023-03-06T06:30:25.513Z,59.70
2023-03-06T06:33:19.736Z,58.80
2023-03-06T06:36:21.956Z,58.50
2023-03-06T06:39:19.224Z,59.00
2023-03-06T06:42:30.476Z,58.30
2023-03-06T06:45:27.746Z,58.90
2023-03-06T06:48:21.982Z,59.30
2023-03-06T06:51:16.208Z,58.90
2023-03-06T06:54:11.763Z,59.20
2023-03-06T06:57:06.179Z,57.40
2023-03-06T07:00:00.417Z,57.30
2023-03-06T07:02:54.633Z,56.30
2023-03-06T07:05:57.309Z,56.40
2023-03-06T07:08:51.602Z,55.40
2023-03-06T07:11:45.970Z,55.60
2023-03-06T07:14:42.611Z,56.50
2023-03-06T07:17:36.921Z,56.20
2023-03-06T07:20:33.121Z,56.60
2023-03-06T07:23:27.905Z,57.20
2023-03-06T07:26:22.187Z,57.60
2023-03-06T07:29:17.359Z,58.20
2023-03-06T07:32:12.596Z,58.70
2023-03-06T07:35:19.860Z,59.20
2023-03-06T07:38:15.590Z,59.50
2023-03-06T07:41:14.570Z,59.80
2023-03-06T07:44:09.035Z,59.30
2023-03-06T07:47:04.719Z,58.70
2023-03-06T07:49:59.984Z,59.20
2023-03-06T07:52:55.421Z,59.80
2023-03-06T07:55:49.913Z,60.30
2023-03-06T07:58:46.478Z,63.40
2023-03-06T08:01:41.444Z,65.10
2023-03-06T08:04:36.634Z,65.10
2023-03-06T08:07:32.329Z,65.70
2023-03-06T08:10:26.721Z,64.70
2023-03-06T08:13:21.135Z,65.20
2023-03-06T08:16:15.622Z,66.90
2023-03-06T08:19:10.007Z,67.40
2023-03-06T08:22:05.544Z,67.20
2023-03-06T08:24:59.813Z,67.40
2023-03-06T08:27:54.589Z,67.80
2023-03-06T08:30:49.112Z,67.50
2023-03-06T08:33:44.883Z,67.60
2023-03-06T08:36:39.990Z,67.20
2023-03-06T08:39:34.594Z,66.00
2023-03-06T08:42:29.014Z,64.80
2023-03-06T08:45:23.648Z,64.80
2023-03-06T08:48:17.945Z,65.20
2023-03-06T08:51:13.216Z,65.10
2023-03-06T08:54:07.827Z,65.40
2023-03-06T08:57:02.198Z,64.30
2023-03-06T08:59:57.997Z,64.60
2023-03-06T09:02:52.375Z,63.90
2023-03-06T09:05:46.711Z,64.20
2023-03-06T09:08:44.284Z,64.70
2023-03-06T09:11:39.544Z,64.90
2023-03-06T09:14:34.222Z,65.30
2023-03-06T09:17:28.484Z,66.00
2023-03-06T09:20:23.607Z,66.70
2023-03-06T09:23:17.840Z,67.00
2023-03-06T09:26:13.661Z,67.10
2023-03-06T09:29:07.987Z,67.70
2023-03-06T09:32:02.337Z,68.20
2023-03-06T09:34:56.811Z,68.40
2023-03-06T09:37:51.044Z,68.30
2023-03-06T09:41:03.200Z,68.60
2023-03-06T09:44:15.873Z,69.00
2023-03-06T09:47:34.849Z,69.50
2023-03-06T09:50:32.194Z,70.70
2023-03-06T09:53:44.445Z,71.00
2023-03-06T09:56:39.420Z,70.90
2023-03-06T09:59:34.864Z,70.20
2023-03-06T10:02:53.848Z,70.00
2023-03-06T10:06:40.344Z,69.00
2023-03-06T10:09:43.603Z,67.00
2023-03-06T10:12:46.675Z,66.60
2023-03-06T10:15:45.654Z,65.80
2023-03-06T10:18:41.224Z,64.90
2023-03-06T10:21:59.848Z,64.70
2023-03-06T10:25:17.901Z,65.50
2023-03-06T10:28:23.453Z,65.80
2023-03-06T10:31:29.177Z,66.10
2023-03-06T10:34:32.748Z,66.80
2023-03-06T10:37:32.538Z,67.40
2023-03-06T10:40:37.507Z,67.30
2023-03-06T10:43:33.455Z,67.60
2023-03-06T10:46:32.995Z,67.90
2023-03-06T10:49:38.328Z,68.70
2023-03-06T10:52:37.342Z,72.80
2023-03-06T10:55:34.028Z,79.30
2023-03-06T10:58:31.315Z,83.00
2023-03-06T11:01:25.067Z,84.70
2023-03-06T11:04:27.032Z,87.00
2023-03-06T11:07:27.927Z,88.20
2023-03-06T11:10:24.564Z,90.10
2023-03-06T11:13:26.164Z,91.20
2023-03-06T11:16:29.186Z,91.30
2023-03-06T11:19:29.348Z,91.00
2023-03-06T11:22:23.626Z,90.70
2023-03-06T11:25:20.455Z,90.50
2023-03-06T11:28:33.318Z,90.90
2023-03-06T11:31:55.105Z,91.50
2023-03-06T11:34:52.361Z,92.40
2023-03-06T11:37:54.373Z,92.70
2023-03-06T11:41:04.117Z,92.60
2023-03-06T11:44:35.238Z,92.40
2023-03-06T11:48:02.959Z,92.40
2023-03-06T11:51:12.388Z,92.50
2023-03-06T11:54:07.088Z,93.30
2023-03-06T11:57:11.466Z,93.70
2023-03-06T12:00:27.537Z,93.90
2023-03-06T12:03:45.358Z,94.30
2023-03-06T12:06:52.142Z,94.40
2023-03-06T12:09:49.326Z,94.10
2023-03-06T12:12:43.183Z,93.10
2023-03-06T12:16:14.551Z,92.80
2023-03-06T12:19:30.028Z,92.80
2023-03-06T12:23:02.345Z,94.30
2023-03-06T12:26:08.413Z,95.20
2023-03-06T12:29:18.863Z,95.10
2023-03-06T12:32:31.575Z,94.90
2023-03-06T12:36:06.584Z,94.20
2023-03-06T12:40:01.711Z,93.00
2023-03-06T12:43:38.908Z,91.70
2023-03-06T12:46:57.062Z,91.40
2023-03-06T12:49:58.160Z,91.10
2023-03-06T12:52:55.167Z,88.80
2023-03-06T12:55:52.275Z,88.00
2023-03-06T12:58:51.267Z,86.90
2023-03-06T13:02:01.225Z,83.00
2023-03-06T13:05:23.451Z,82.10
2023-03-06T13:08:54.536Z,81.70
2023-03-06T13:12:00.978Z,81.30
2023-03-06T13:14:57.714Z,80.50
2023-03-06T13:17:52.269Z,81.40
2023-03-06T13:20:47.320Z,79.50
2023-03-06T13:24:07.865Z,79.00
2023-03-06T13:27:03.596Z,78.20
2023-03-06T13:30:28.810Z,71.90
2023-03-06T13:33:31.176Z,70.90
2023-03-06T13:36:39.454Z,71.10
2023-03-06T13:39:56.503Z,70.70
2023-03-06T13:43:06.142Z,71.10
2023-03-06T13:46:26.099Z,70.90
2023-03-06T13:49:26.324Z,71.00
2023-03-06T13:52:38.646Z,69.50
2023-03-06T13:56:22.334Z,69.30
2023-03-06T13:59:34.975Z,67.70
2023-03-06T14:02:38.149Z,67.10
2023-03-06T14:05:47.585Z,66.10
2023-03-06T14:08:43.107Z,64.90
2023-03-06T14:11:39.110Z,65.10
2023-03-06T14:14:47.476Z,64.80
2023-03-06T14:17:59.478Z,64.60
2023-03-06T14:21:13.212Z,63.40
2023-03-06T14:24:07.994Z,63.60
2023-03-06T14:27:02.731Z,63.70
2023-03-06T14:29:37.050Z,64.50
2023-03-06T14:32:13.400Z,65.20
2023-03-06T14:35:08.360Z,66.30
2023-03-06T14:38:09.875Z,67.50
2023-03-06T14:41:06.430Z,68.60
2023-03-06T14:44:23.166Z,69.50
2023-03-06T14:47:27.286Z,69.90
2023-03-06T14:50:29.047Z,69.40
2023-03-06T14:53:33.730Z,69.20
2023-03-06T14:56:29.276Z,69.40
2023-03-06T14:59:28.180Z,69.70
2023-03-06T15:02:28.593Z,70.00
2023-03-06T15:05:31.976Z,70.40
2023-03-06T15:08:33.948Z,70.90
2023-03-06T15:11:28.183Z,71.60
2023-03-06T15:14:30.180Z,72.30
2023-03-06T15:17:29.785Z,72.00
2023-03-06T15:20:42.786Z,72.10
2023-03-06T15:23:42.944Z,72.50
2023-03-06T15:26:42.019Z,73.40
2023-03-06T15:29:39.640Z,74.60
2023-03-06T15:32:37.083Z,77.00
2023-03-06T15:35:37.880Z,79.50
2023-03-06T15:38:42.487Z,80.30
2023-03-06T15:41:39.479Z,80.70
2023-03-06T15:45:23.016Z,81.50
2023-03-06T15:48:19.841Z,81.60
2023-03-06T15:51:14.318Z,82.10
2023-03-06T15:54:12.173Z,82.30
2023-03-06T15:57:13.298Z,83.10
2023-03-06T16:00:26.383Z,83.30
2023-03-06T16:03:21.600Z,84.20
2023-03-06T16:06:24.788Z,84.30
2023-03-06T16:09:19.089Z,84.30
2023-03-06T16:12:21.897Z,84.20
2023-03-06T16:15:42.702Z,83.50
2023-03-06T16:18:36.912Z,82.20
2023-03-06T16:21:31.268Z,80.80
2023-03-06T16:24:27.346Z,80.80
2023-03-06T16:27:24.031Z,81.10
2023-03-06T16:30:22.119Z,80.10
2023-03-06T16:33:16.942Z,80.30
2023-03-06T16:36:24.260Z,80.40
2023-03-06T16:39:20.878Z,80.40
2023-03-06T16:42:17.690Z,80.00
2023-03-06T16:45:12.892Z,79.20
2023-03-06T16:48:08.443Z,78.50
2023-03-06T16:51:02.915Z,78.10
2023-03-06T16:53:57.160Z,77.20
2023-03-06T16:56:51.391Z,75.80
2023-03-06T16:59:45.681Z,75.10
2023-03-06T17:02:41.681Z,76.00
2023-03-06T17:05:37.488Z,77.50
2023-03-06T17:08:32.109Z,77.90
2023-03-06T17:11:26.384Z,78.10
2023-03-06T17:14:20.778Z,78.10
2023-03-06T17:17:15.498Z,78.00
2023-03-06T17:20:10.742Z,78.10
2023-03-06T17:23:05.014Z,79.40
2023-03-06T17:26:15.204Z,81.90
2023-03-06T17:29:10.694Z,85.70
2023-03-06T17:32:05.433Z,89.30
2023-03-06T17:34:59.819Z,90.30
2023-03-06T17:37:54.240Z,91.10
2023-03-06T17:40:48.570Z,91.80
2023-03-06T17:43:42.961Z,92.50
2023-03-06T17:46:37.283Z,92.60
2023-03-06T17:49:32.105Z,92.60
2023-03-06T17:52:26.371Z,92.60
2023-03-06T17:55:20.730Z,93.20
2023-03-06T17:58:14.972Z,93.60
2023-03-06T18:01:14.693Z,94.10
2023-03-06T18:04:08.951Z,94.40
2023-03-06T18:07:03.308Z,94.60
2023-03-06T18:09:57.827Z,94.70
2023-03-06T18:12:52.517Z,94.80
2023-03-06T18:15:46.700Z,94.80
2023-03-06T18:18:41.081Z,94.60
2023-03-06T18:21:35.337Z,94.40
2023-03-06T18:24:29.840Z,94.20
2023-03-06T18:27:24.796Z,93.50
2023-03-06T18:30:19.564Z,93.00
2023-03-06T18:33:14.140Z,91.00
2023-03-06T18:36:08.708Z,90.80
2023-03-06T18:39:04.916Z,90.80
2023-03-06T18:42:01.528Z,90.50
2023-03-06T18:44:55.721Z,90.40
2023-03-06T18:47:50.018Z,90.30
2023-03-06T18:50:44.315Z,90.00
2023-03-06T18:53:41.043Z,88.40
2023-03-06T18:56:36.158Z,87.90
2023-03-06T18:59:30.534Z,88.30
2023-03-06T19:02:24.854Z,87.70
2023-03-06T19:05:19.195Z,86.60
2023-03-06T19:08:13.996Z,84.70
2023-03-06T19:11:11.071Z,84.50
2023-03-06T19:14:05.339Z,84.70
2023-03-06T19:16:59.644Z,84.20
2023-03-06T19:19:53.925Z,84.40
2023-03-06T19:22:48.230Z,84.70
2023-03-06T19:25:42.489Z,85.00
2023-03-06T19:28:41.724Z,85.40
2023-03-06T19:31:35.959Z,85.40
2023-03-06T19:34:30.279Z,85.50
2023-03-06T19:37:24.611Z,85.80
2023-03-06T19:40:19.274Z,85.90
2023-03-06T19:43:13.551Z,86.00
2023-03-06T19:46:08.247Z,86.20
2023-03-06T19:49:12.851Z,86.70
2023-03-06T19:52:10.503Z,86.40
2023-03-06T19:55:04.852Z,87.70
2023-03-06T19:57:59.710Z,89.20
2023-03-06T20:00:53.999Z,90.40
2023-03-06T20:03:48.614Z,91.00
2023-03-06T20:06:42.906Z,91.40
2023-03-06T20:09:37.212Z,91.50
2023-03-06T20:12:31.713Z,91.50
2023-03-06T20:15:26.069Z,91.70
2023-03-06T20:18:20.299Z,91.80
2023-03-06T20:21:15.741Z,91.80
2023-03-06T20:24:17.742Z,92.00
2023-03-06T20:27:12.010Z,92.00
2023-03-06T20:30:08.077Z,92.20
2023-03-06T20:33:02.541Z,92.40
2023-03-06T20:35:56.834Z,92.50
2023-03-06T20:38:51.795Z,92.70
2023-03-06T20:41:47.986Z,92.80
2023-03-06T20:44:42.617Z,93.00
2023-03-06T20:47:36.986Z,93.10
2023-03-06T20:50:31.418Z,93.40
2023-03-06T20:53:25.703Z,93.50
2023-03-06T20:56:25.065Z,93.60
2023-03-06T20:59:19.662Z,93.70
2023-03-06T21:02:16.096Z,93.80
2023-03-06T21:05:10.837Z,93.40
2023-03-06T21:08:05.197Z,93.10
2023-03-06T21:11:02.592Z,92.60
2023-03-06T21:13:57.643Z,92.20
2023-03-06T21:16:51.940Z,91.20
2023-03-06T21:19:48.568Z,91.30
2023-03-06T21:22:42.734Z,91.30
2023-03-06T21:25:38.210Z,91.20
2023-03-06T21:28:33.134Z,91.10
2023-03-06T21:31:29.523Z,90.80
2023-03-06T21:34:23.895Z,90.50
2023-03-06T21:37:18.284Z,90.00
2023-03-06T21:40:13.586Z,90.10
2023-03-06T21:43:08.135Z,88.80
2023-03-06T21:46:02.436Z,88.50
2023-03-06T21:48:57.515Z,86.30
2023-03-06T21:51:51.820Z,87.00
2023-03-06T21:54:46.085Z,86.50
2023-03-06T21:57:40.300Z,86.50
2023-03-06T22:00:37.497Z,86.50
2023-03-06T22:03:32.241Z,86.90
2023-03-06T22:06:28.822Z,86.20
2023-03-06T22:09:23.135Z,84.20
2023-03-06T22:12:17.346Z,84.00
2023-03-06T22:15:12.198Z,83.40
2023-03-06T22:18:06.772Z,82.70
2023-03-06T22:21:01.107Z,82.20
2023-03-06T22:24:00.582Z,81.70
2023-03-06T22:26:55.812Z,81.40
2023-03-06T22:29:50.236Z,81.00
2023-03-06T22:32:44.543Z,81.10
2023-03-06T22:35:38.894Z,82.20
2023-03-06T22:38:36.903Z,81.40
2023-03-06T22:41:31.438Z,81.50
2023-03-06T22:44:25.954Z,81.60
2023-03-06T22:47:20.286Z,81.80
2023-03-06T22:50:14.482Z,81.10
2023-03-06T22:53:08.779Z,80.00
2023-03-06T22:56:05.568Z,79.30
2023-03-06T22:59:00.224Z,76.00
2023-03-06T23:01:54.587Z,72.70
2023-03-06T23:04:54.497Z,74.70
2023-03-06T23:07:48.797Z,68.10
2023-03-06T23:10:43.145Z,59.70
2023-03-06T23:13:38.028Z,59.10
2023-03-06T23:16:32.707Z,58.60
2023-03-06T23:19:27.938Z,57.70
2023-03-06T23:22:22.364Z,55.90
2023-03-06T23:25:16.822Z,56.20
2023-03-06T23:28:11.519Z,56.40
2023-03-06T23:31:14.000Z,56.40
2023-03-06T23:34:10.810Z,57.80
2023-03-06T23:37:05.080Z,59.50
2023-03-06T23:39:59.449Z,59.50
2023-03-06T23:42:53.673Z,58.30
2023-03-06T23:45:57.752Z,57.90
2023-03-06T23:48:51.981Z,59.50
2023-03-06T23:51:46.303Z,60.20
2023-03-06T23:54:40.603Z,58.20
2023-03-06T23:57:35.181Z,59.00
